sensor_id;sensor_type;location;lat;lon;timestamp;P1;durP1;ratioP1;P2;durP2;ratioP2
10162;SDS011;5123;52.556;13.384;2023-09-07T00:01:47;11.43;;;8.87;;
10162;SDS011;5123;52.556;13.384;2023-09-07T00:04:20;12.13;;;9.63;;
10162;SDS011;5123;52.556;13.384;2023-09-07T00:06:54;10.63;;;9.57;;
10162;SDS011;5123;52.556;13.384;2023-09-07T00:09:28;12.57;;;9.43;;
10162;SDS011;5123;52.556;13.384;2023-09-07T00:12:06;10.83;;;9.47;;
10162;SDS011;5123;52.556;13.384;2023-09-07T00:14:38;11.57;;;10.03;;
10162;SDS011;5123;52.556;13.384;2023-09-07T00:17:11;12.40;;;10.27;;
10162;SDS011;5123;52.556;13.384;2023-09-07T00:19:45;11.97;;;9.87;;
10162;SDS011;5123;52.556;13.384;2023-09-07T00:22:20;11.80;;;10.03;;
10162;SDS011;5123;52.556;13.384;2023-09-07T00:24:57;10.57;;;9.53;;
10162;SDS011;5123;52.556;13.384;2023-09-07T00:27:31;11.00;;;9.90;;
10162;SDS011;5123;52.556;13.384;2023-09-07T00:30:04;11.10;;;9.23;;
10162;SDS011;5123;52.556;13.384;2023-09-07T00:32:37;13.33;;;9.67;;
10162;SDS011;5123;52.556;13.384;2023-09-07T00:35:10;10.00;;;8.93;;
10162;SDS011;5123;52.556;13.384;2023-09-07T00:37:43;10.70;;;9.60;;
10162;SDS011;5123;52.556;13.384;2023-09-07T00:40:17;12.63;;;10.10;;
10162;SDS011;5123;52.556;13.384;2023-09-07T00:42:50;9.60;;;8.70;;
10162;SDS011;5123;52.556;13.384;2023-09-07T00:45:22;9.73;;;8.57;;
10162;SDS011;5123;52.556;13.384;2023-09-07T00:47:55;10.47;;;9.03;;
10162;SDS011;5123;52.556;13.384;2023-09-07T00:50:28;9.80;;;8.80;;
10162;SDS011;5123;52.556;13.384;2023-09-07T00:53:04;9.47;;;8.10;;
10162;SDS011;5123;52.556;13.384;2023-09-07T00:55:38;10.20;;;8.57;;
10162;SDS011;5123;52.556;13.384;2023-09-07T00:58:12;9.40;;;8.50;;
10162;SDS011;5123;52.556;13.384;2023-09-07T01:00:45;9.43;;;8.43;;
10162;SDS011;5123;52.556;13.384;2023-09-07T01:03:20;13.40;;;8.67;;
10162;SDS011;5123;52.556;13.384;2023-09-07T01:05:56;8.63;;;7.83;;
10162;SDS011;5123;52.556;13.384;2023-09-07T01:08:32;10.23;;;7.97;;
10162;SDS011;5123;52.556;13.384;2023-09-07T01:11:13;9.57;;;8.40;;
10162;SDS011;5123;52.556;13.384;2023-09-07T01:13:47;8.70;;;7.80;;
10162;SDS011;5123;52.556;13.384;2023-09-07T01:16:20;9.57;;;8.67;;
10162;SDS011;5123;52.556;13.384;2023-09-07T01:18:55;7.87;;;7.17;;
10162;SDS011;5123;52.556;13.384;2023-09-07T01:21:33;8.00;;;7.20;;
10162;SDS011;5123;52.556;13.384;2023-09-07T01:24:07;8.57;;;7.77;;
10162;SDS011;5123;52.556;13.384;2023-09-07T01:26:40;9.03;;;7.33;;
10162;SDS011;5123;52.556;13.384;2023-09-07T01:29:16;8.07;;;7.37;;
10162;SDS011;5123;52.556;13.384;2023-09-07T01:31:49;10.47;;;8.50;;
10162;SDS011;5123;52.556;13.384;2023-09-07T01:34:22;8.47;;;7.40;;
10162;SDS011;5123;52.556;13.384;2023-09-07T01:36:56;7.97;;;7.10;;
10162;SDS011;5123;52.556;13.384;2023-09-07T01:39:29;8.90;;;7.73;;
10162;SDS011;5123;52.556;13.384;2023-09-07T01:42:02;8.40;;;7.50;;
10162;SDS011;5123;52.556;13.384;2023-09-07T01:44:34;11.20;;;8.00;;
10162;SDS011;5123;52.556;13.384;2023-09-07T01:47:07;8.17;;;7.37;;
10162;SDS011;5123;52.556;13.384;2023-09-07T01:49:40;7.83;;;7.10;;
10162;SDS011;5123;52.556;13.384;2023-09-07T01:52:15;7.73;;;6.97;;
10162;SDS011;5123;52.556;13.384;2023-09-07T01:54:48;8.33;;;7.63;;
10162;SDS011;5123;52.556;13.384;2023-09-07T01:57:20;9.10;;;7.60;;
10162;SDS011;5123;52.556;13.384;2023-09-07T01:59:53;8.13;;;7.33;;
10162;SDS011;5123;52.556;13.384;2023-09-07T02:02:26;7.63;;;6.93;;
10162;SDS011;5123;52.556;13.384;2023-09-07T02:05:02;8.77;;;7.53;;
10162;SDS011;5123;52.556;13.384;2023-09-07T02:07:39;8.17;;;7.37;;
10162;SDS011;5123;52.556;13.384;2023-09-07T02:10:12;8.13;;;7.43;;
10162;SDS011;5123;52.556;13.384;2023-09-07T02:12:49;8.33;;;7.53;;
10162;SDS011;5123;52.556;13.384;2023-09-07T02:15:23;7.73;;;7.03;;
10162;SDS011;5123;52.556;13.384;2023-09-07T02:17:56;9.00;;;7.70;;
10162;SDS011;5123;52.556;13.384;2023-09-07T02:20:29;8.53;;;7.70;;
10162;SDS011;5123;52.556;13.384;2023-09-07T02:23:06;11.60;;;7.73;;
10162;SDS011;5123;52.556;13.384;2023-09-07T02:25:40;9.73;;;7.97;;
10162;SDS011;5123;52.556;13.384;2023-09-07T02:28:12;8.30;;;7.60;;
10162;SDS011;5123;52.556;13.384;2023-09-07T02:30:48;8.03;;;7.27;;
10162;SDS011;5123;52.556;13.384;2023-09-07T02:33:20;10.00;;;7.77;;
10162;SDS011;5123;52.556;13.384;2023-09-07T02:35:53;9.40;;;7.90;;
10162;SDS011;5123;52.556;13.384;2023-09-07T02:38:28;8.10;;;7.33;;
10162;SDS011;5123;52.556;13.384;2023-09-07T02:41:02;8.90;;;8.00;;
10162;SDS011;5123;52.556;13.384;2023-09-07T02:43:34;8.97;;;8.17;;
10162;SDS011;5123;52.556;13.384;2023-09-07T02:46:07;10.77;;;7.00;;
10162;SDS011;5123;52.556;13.384;2023-09-07T02:48:40;9.07;;;8.13;;
10162;SDS011;5123;52.556;13.384;2023-09-07T02:51:12;9.87;;;8.23;;
10162;SDS011;5123;52.556;13.384;2023-09-07T02:53:47;8.47;;;7.57;;
10162;SDS011;5123;52.556;13.384;2023-09-07T02:56:20;11.13;;;8.23;;
10162;SDS011;5123;52.556;13.384;2023-09-07T02:58:53;10.57;;;7.90;;
10162;SDS011;5123;52.556;13.384;2023-09-07T03:01:25;9.57;;;8.67;;
10162;SDS011;5123;52.556;13.384;2023-09-07T03:04:01;8.57;;;7.77;;
10162;SDS011;5123;52.556;13.384;2023-09-07T03:06:37;9.33;;;8.13;;
10162;SDS011;5123;52.556;13.384;2023-09-07T03:09:11;9.67;;;8.63;;
10162;SDS011;5123;52.556;13.384;2023-09-07T03:11:44;9.07;;;8.17;;
10162;SDS011;5123;52.556;13.384;2023-09-07T03:14:21;10.80;;;9.70;;
10162;SDS011;5123;52.556;13.384;2023-09-07T03:16:54;9.20;;;8.30;;
10162;SDS011;5123;52.556;13.384;2023-09-07T03:19:27;11.50;;;8.97;;
10162;SDS011;5123;52.556;13.384;2023-09-07T03:22:00;12.43;;;9.00;;
10162;SDS011;5123;52.556;13.384;2023-09-07T03:24:34;11.53;;;8.97;;
10162;SDS011;5123;52.556;13.384;2023-09-07T03:27:06;12.10;;;9.63;;
10162;SDS011;5123;52.556;13.384;2023-09-07T03:29:39;11.00;;;9.43;;
10162;SDS011;5123;52.556;13.384;2023-09-07T03:32:15;10.73;;;9.63;;
10162;SDS011;5123;52.556;13.384;2023-09-07T03:34:48;10.73;;;9.70;;
10162;SDS011;5123;52.556;13.384;2023-09-07T03:37:20;10.30;;;9.30;;
10162;SDS011;5123;52.556;13.384;2023-09-07T03:39:54;10.13;;;8.97;;
10162;SDS011;5123;52.556;13.384;2023-09-07T03:42:27;10.03;;;9.03;;
10162;SDS011;5123;52.556;13.384;2023-09-07T03:45:04;10.07;;;9.07;;
10162;SDS011;5123;52.556;13.384;2023-09-07T03:47:37;10.83;;;9.10;;
10162;SDS011;5123;52.556;13.384;2023-09-07T03:50:10;11.17;;;10.03;;
10162;SDS011;5123;52.556;13.384;2023-09-07T03:52:43;10.90;;;9.80;;
10162;SDS011;5123;52.556;13.384;2023-09-07T03:55:17;10.50;;;9.50;;
10162;SDS011;5123;52.556;13.384;2023-09-07T03:57:53;13.33;;;10.40;;
10162;SDS011;5123;52.556;13.384;2023-09-07T04:00:26;10.70;;;9.70;;
10162;SDS011;5123;52.556;13.384;2023-09-07T04:02:59;10.53;;;9.53;;
10162;SDS011;5123;52.556;13.384;2023-09-07T04:05:31;13.70;;;9.83;;
10162;SDS011;5123;52.556;13.384;2023-09-07T04:08:05;9.40;;;8.50;;
10162;SDS011;5123;52.556;13.384;2023-09-07T04:10:39;11.23;;;10.03;;
10162;SDS011;5123;52.556;13.384;2023-09-07T04:13:11;9.80;;;8.87;;
10162;SDS011;5123;52.556;13.384;2023-09-07T04:15:45;10.33;;;8.90;;
10162;SDS011;5123;52.556;13.384;2023-09-07T04:18:23;10.87;;;9.33;;
10162;SDS011;5123;52.556;13.384;2023-09-07T04:21:04;11.73;;;9.80;;
10162;SDS011;5123;52.556;13.384;2023-09-07T04:23:36;10.83;;;9.63;;
10162;SDS011;5123;52.556;13.384;2023-09-07T04:26:11;11.53;;;9.57;;
10162;SDS011;5123;52.556;13.384;2023-09-07T04:28:44;11.87;;;10.47;;
10162;SDS011;5123;52.556;13.384;2023-09-07T04:31:17;10.53;;;9.50;;
10162;SDS011;5123;52.556;13.384;2023-09-07T04:33:49;11.20;;;9.93;;
10162;SDS011;5123;52.556;13.384;2023-09-07T04:36:22;13.10;;;11.03;;
10162;SDS011;5123;52.556;13.384;2023-09-07T04:38:56;11.37;;;10.13;;
10162;SDS011;5123;52.556;13.384;2023-09-07T04:41:31;13.70;;;11.07;;
10162;SDS011;5123;52.556;13.384;2023-09-07T04:44:04;11.37;;;10.27;;
10162;SDS011;5123;52.556;13.384;2023-09-07T04:46:39;13.43;;;10.63;;
10162;SDS011;5123;52.556;13.384;2023-09-07T04:49:12;13.20;;;9.97;;
10162;SDS011;5123;52.556;13.384;2023-09-07T04:51:45;13.53;;;9.87;;
10162;SDS011;5123;52.556;13.384;2023-09-07T04:54:17;11.83;;;10.63;;
10162;SDS011;5123;52.556;13.384;2023-09-07T04:56:51;15.13;;;11.03;;
10162;SDS011;5123;52.556;13.384;2023-09-07T04:59:24;13.37;;;9.60;;
10162;SDS011;5123;52.556;13.384;2023-09-07T05:01:59;12.00;;;9.87;;
10162;SDS011;5123;52.556;13.384;2023-09-07T05:04:32;11.33;;;9.77;;
10162;SDS011;5123;52.556;13.384;2023-09-07T05:07:04;12.30;;;9.27;;
10162;SDS011;5123;52.556;13.384;2023-09-07T05:09:37;11.53;;;9.90;;
10162;SDS011;5123;52.556;13.384;2023-09-07T05:12:11;12.27;;;10.00;;
10162;SDS011;5123;52.556;13.384;2023-09-07T05:14:46;12.87;;;9.63;;
10162;SDS011;5123;52.556;13.384;2023-09-07T05:17:19;11.17;;;10.00;;
10162;SDS011;5123;52.556;13.384;2023-09-07T05:19:52;14.00;;;9.67;;
10162;SDS011;5123;52.556;13.384;2023-09-07T05:22:25;10.67;;;9.37;;
10162;SDS011;5123;52.556;13.384;2023-09-07T05:24:58;10.67;;;8.83;;
10162;SDS011;5123;52.556;13.384;2023-09-07T05:27:35;11.83;;;9.40;;
10162;SDS011;5123;52.556;13.384;2023-09-07T05:30:08;11.43;;;10.17;;
10162;SDS011;5123;52.556;13.384;2023-09-07T05:32:41;11.80;;;9.87;;
10162;SDS011;5123;52.556;13.384;2023-09-07T05:35:14;13.67;;;10.10;;
10162;SDS011;5123;52.556;13.384;2023-09-07T05:37:48;11.30;;;9.13;;
10162;SDS011;5123;52.556;13.384;2023-09-07T05:40:21;10.87;;;9.27;;
10162;SDS011;5123;52.556;13.384;2023-09-07T05:42:55;12.77;;;9.30;;
10162;SDS011;5123;52.556;13.384;2023-09-07T05:45:33;11.03;;;9.20;;
10162;SDS011;5123;52.556;13.384;2023-09-07T05:48:07;12.73;;;9.50;;
10162;SDS011;5123;52.556;13.384;2023-09-07T05:50:41;11.53;;;8.73;;
10162;SDS011;5123;52.556;13.384;2023-09-07T05:53:13;9.80;;;8.80;;
10162;SDS011;5123;52.556;13.384;2023-09-07T05:55:47;9.83;;;8.87;;
10162;SDS011;5123;52.556;13.384;2023-09-07T05:58:21;9.50;;;8.50;;
10162;SDS011;5123;52.556;13.384;2023-09-07T06:00:54;15.20;;;8.40;;
10162;SDS011;5123;52.556;13.384;2023-09-07T06:03:26;9.50;;;8.60;;
10162;SDS011;5123;52.556;13.384;2023-09-07T06:06:01;11.23;;;8.83;;
10162;SDS011;5123;52.556;13.384;2023-09-07T06:08:34;10.73;;;9.10;;
10162;SDS011;5123;52.556;13.384;2023-09-07T06:11:07;12.37;;;8.83;;
10162;SDS011;5123;52.556;13.384;2023-09-07T06:13:41;9.83;;;8.93;;
10162;SDS011;5123;52.556;13.384;2023-09-07T06:16:14;10.87;;;8.23;;
10162;SDS011;5123;52.556;13.384;2023-09-07T06:18:47;8.67;;;7.80;;
10162;SDS011;5123;52.556;13.384;2023-09-07T06:21:22;13.30;;;9.40;;
10162;SDS011;5123;52.556;13.384;2023-09-07T06:23:55;9.83;;;8.33;;
10162;SDS011;5123;52.556;13.384;2023-09-07T06:26:28;11.67;;;8.43;;
10162;SDS011;5123;52.556;13.384;2023-09-07T06:29:02;12.53;;;8.13;;
10162;SDS011;5123;52.556;13.384;2023-09-07T06:31:36;9.83;;;7.33;;
10162;SDS011;5123;52.556;13.384;2023-09-07T06:34:11;9.27;;;8.33;;
10162;SDS011;5123;52.556;13.384;2023-09-07T06:36:44;11.50;;;8.53;;
10162;SDS011;5123;52.556;13.384;2023-09-07T06:39:18;10.20;;;8.10;;
10162;SDS011;5123;52.556;13.384;2023-09-07T06:41:51;14.87;;;8.03;;
10162;SDS011;5123;52.556;13.384;2023-09-07T06:44:25;9.57;;;7.93;;
10162;SDS011;5123;52.556;13.384;2023-09-07T06:47:01;9.90;;;7.53;;
10162;SDS011;5123;52.556;13.384;2023-09-07T06:49:35;11.70;;;7.67;;
10162;SDS011;5123;52.556;13.384;2023-09-07T06:52:10;10.13;;;8.17;;
10162;SDS011;5123;52.556;13.384;2023-09-07T06:54:43;11.93;;;8.47;;
10162;SDS011;5123;52.556;13.384;2023-09-07T06:57:18;11.63;;;9.10;;
10162;SDS011;5123;52.556;13.384;2023-09-07T06:59:53;11.03;;;7.60;;
10162;SDS011;5123;52.556;13.384;2023-09-07T07:02:32;8.57;;;7.60;;
10162;SDS011;5123;52.556;13.384;2023-09-07T07:05:06;10.40;;;7.70;;
10162;SDS011;5123;52.556;13.384;2023-09-07T07:07:39;9.30;;;7.83;;
10162;SDS011;5123;52.556;13.384;2023-09-07T07:10:12;10.43;;;8.00;;
10162;SDS011;5123;52.556;13.384;2023-09-07T07:12:45;12.23;;;7.67;;
10162;SDS011;5123;52.556;13.384;2023-09-07T07:15:19;10.13;;;7.87;;
10162;SDS011;5123;52.556;13.384;2023-09-07T07:17:52;12.33;;;8.30;;
10162;SDS011;5123;52.556;13.384;2023-09-07T07:20:25;10.83;;;7.90;;
10162;SDS011;5123;52.556;13.384;2023-09-07T07:23:00;10.03;;;7.87;;
10162;SDS011;5123;52.556;13.384;2023-09-07T07:25:33;8.70;;;7.70;;
10162;SDS011;5123;52.556;13.384;2023-09-07T07:28:06;8.60;;;7.27;;
10162;SDS011;5123;52.556;13.384;2023-09-07T07:30:40;10.73;;;6.67;;
10162;SDS011;5123;52.556;13.384;2023-09-07T07:33:12;8.93;;;6.43;;
10162;SDS011;5123;52.556;13.384;2023-09-07T07:35:45;11.67;;;7.93;;
10162;SDS011;5123;52.556;13.384;2023-09-07T07:38:18;8.10;;;7.23;;
10162;SDS011;5123;52.556;13.384;2023-09-07T07:40:51;9.97;;;7.53;;
10162;SDS011;5123;52.556;13.384;2023-09-07T07:43:24;10.53;;;7.13;;
10162;SDS011;5123;52.556;13.384;2023-09-07T07:45:59;8.60;;;6.93;;
10162;SDS011;5123;52.556;13.384;2023-09-07T07:48:32;8.83;;;6.83;;
10162;SDS011;5123;52.556;13.384;2023-09-07T07:51:07;8.37;;;7.03;;
10162;SDS011;5123;52.556;13.384;2023-09-07T07:53:42;7.03;;;6.33;;
10162;SDS011;5123;52.556;13.384;2023-09-07T07:56:16;11.10;;;9.13;;
10162;SDS011;5123;52.556;13.384;2023-09-07T07:58:49;12.57;;;8.70;;
10162;SDS011;5123;52.556;13.384;2023-09-07T08:01:23;12.23;;;9.30;;
10162;SDS011;5123;52.556;13.384;2023-09-07T08:03:57;9.37;;;7.33;;
10162;SDS011;5123;52.556;13.384;2023-09-07T08:06:37;9.17;;;7.63;;
10162;SDS011;5123;52.556;13.384;2023-09-07T08:09:13;10.67;;;7.67;;
10162;SDS011;5123;52.556;13.384;2023-09-07T08:11:50;8.73;;;7.17;;
10162;SDS011;5123;52.556;13.384;2023-09-07T08:14:24;13.63;;;9.97;;
10162;SDS011;5123;52.556;13.384;2023-09-07T08:16:58;12.10;;;7.43;;
10162;SDS011;5123;52.556;13.384;2023-09-07T08:19:31;9.40;;;7.00;;
10162;SDS011;5123;52.556;13.384;2023-09-07T08:22:04;7.73;;;6.83;;
10162;SDS011;5123;52.556;13.384;2023-09-07T08:24:37;9.77;;;7.07;;
10162;SDS011;5123;52.556;13.384;2023-09-07T08:27:11;8.13;;;6.20;;
10162;SDS011;5123;52.556;13.384;2023-09-07T08:29:49;8.30;;;6.13;;
10162;SDS011;5123;52.556;13.384;2023-09-07T08:32:24;10.40;;;6.47;;
10162;SDS011;5123;52.556;13.384;2023-09-07T08:34:57;8.30;;;6.27;;
10162;SDS011;5123;52.556;13.384;2023-09-07T08:37:32;12.27;;;7.00;;
10162;SDS011;5123;52.556;13.384;2023-09-07T08:40:06;13.20;;;7.57;;
10162;SDS011;5123;52.556;13.384;2023-09-07T08:42:39;11.90;;;6.90;;
10162;SDS011;5123;52.556;13.384;2023-09-07T08:45:13;7.83;;;6.87;;
10162;SDS011;5123;52.556;13.384;2023-09-07T08:47:51;8.77;;;7.17;;
10162;SDS011;5123;52.556;13.384;2023-09-07T08:50:29;9.33;;;7.60;;
10162;SDS011;5123;52.556;13.384;2023-09-07T08:53:03;13.83;;;8.27;;
10162;SDS011;5123;52.556;13.384;2023-09-07T08:55:36;10.33;;;5.73;;
10162;SDS011;5123;52.556;13.384;2023-09-07T08:58:08;5.93;;;5.17;;
10162;SDS011;5123;52.556;13.384;2023-09-07T09:00:41;8.07;;;5.27;;
10162;SDS011;5123;52.556;13.384;2023-09-07T09:03:22;7.27;;;5.50;;
10162;SDS011;5123;52.556;13.384;2023-09-07T09:05:55;8.40;;;5.87;;
10162;SDS011;5123;52.556;13.384;2023-09-07T09:08:28;5.97;;;5.13;;
10162;SDS011;5123;52.556;13.384;2023-09-07T09:11:02;7.10;;;5.87;;
10162;SDS011;5123;52.556;13.384;2023-09-07T09:13:35;7.67;;;5.03;;
10162;SDS011;5123;52.556;13.384;2023-09-07T09:16:08;8.77;;;5.07;;
10162;SDS011;5123;52.556;13.384;2023-09-07T09:18:48;11.77;;;5.10;;
10162;SDS011;5123;52.556;13.384;2023-09-07T09:21:24;6.77;;;5.30;;
10162;SDS011;5123;52.556;13.384;2023-09-07T09:23:57;7.53;;;5.50;;
10162;SDS011;5123;52.556;13.384;2023-09-07T09:26:32;8.87;;;5.13;;
10162;SDS011;5123;52.556;13.384;2023-09-07T09:29:06;7.38;;;6.20;;
10162;SDS011;5123;52.556;13.384;2023-09-07T09:31:39;8.53;;;6.10;;
10162;SDS011;5123;52.556;13.384;2023-09-07T09:34:14;9.80;;;6.28;;
10162;SDS011;5123;52.556;13.384;2023-09-07T09:36:47;6.97;;;6.27;;
10162;SDS011;5123;52.556;13.384;2023-09-07T09:39:23;7.10;;;6.13;;
10162;SDS011;5123;52.556;13.384;2023-09-07T09:41:58;7.88;;;5.75;;
10162;SDS011;5123;52.556;13.384;2023-09-07T09:44:31;6.70;;;5.43;;
10162;SDS011;5123;52.556;13.384;2023-09-07T09:47:04;7.38;;;5.85;;
10162;SDS011;5123;52.556;13.384;2023-09-07T09:49:42;6.95;;;6.28;;
10162;SDS011;5123;52.556;13.384;2023-09-07T09:52:15;6.00;;;5.27;;
10162;SDS011;5123;52.556;13.384;2023-09-07T09:54:53;6.82;;;5.35;;
10162;SDS011;5123;52.556;13.384;2023-09-07T09:57:26;8.13;;;6.20;;
10162;SDS011;5123;52.556;13.384;2023-09-07T10:00:02;8.40;;;6.05;;
10162;SDS011;5123;52.556;13.384;2023-09-07T10:02:40;6.80;;;5.43;;
10162;SDS011;5123;52.556;13.384;2023-09-07T10:05:14;7.03;;;5.75;;
10162;SDS011;5123;52.556;13.384;2023-09-07T10:08:00;8.60;;;5.30;;
10162;SDS011;5123;52.556;13.384;2023-09-07T10:10:37;8.40;;;5.30;;
10162;SDS011;5123;52.556;13.384;2023-09-07T10:13:15;6.97;;;5.32;;
10162;SDS011;5123;52.556;13.384;2023-09-07T10:15:48;5.78;;;5.25;;
10162;SDS011;5123;52.556;13.384;2023-09-07T10:18:33;5.75;;;5.20;;
10162;SDS011;5123;52.556;13.384;2023-09-07T10:21:10;6.32;;;5.50;;
10162;SDS011;5123;52.556;13.384;2023-09-07T10:23:45;5.95;;;5.45;;
10162;SDS011;5123;52.556;13.384;2023-09-07T10:26:18;6.80;;;5.53;;
10162;SDS011;5123;52.556;13.384;2023-09-07T10:28:59;7.25;;;5.30;;
10162;SDS011;5123;52.556;13.384;2023-09-07T10:31:31;7.47;;;5.05;;
10162;SDS011;5123;52.556;13.384;2023-09-07T10:34:34;5.65;;;4.65;;
10162;SDS011;5123;52.556;13.384;2023-09-07T10:37:08;7.22;;;5.50;;
10162;SDS011;5123;52.556;13.384;2023-09-07T10:39:42;5.68;;;5.00;;
10162;SDS011;5123;52.556;13.384;2023-09-07T10:42:21;8.00;;;5.50;;
10162;SDS011;5123;52.556;13.384;2023-09-07T10:44:55;5.90;;;5.30;;
10162;SDS011;5123;52.556;13.384;2023-09-07T10:47:28;6.72;;;5.15;;
10162;SDS011;5123;52.556;13.384;2023-09-07T10:50:01;6.60;;;4.60;;
10162;SDS011;5123;52.556;13.384;2023-09-07T10:52:44;7.70;;;4.80;;
10162;SDS011;5123;52.556;13.384;2023-09-07T10:55:17;8.52;;;5.40;;
10162;SDS011;5123;52.556;13.384;2023-09-07T10:57:50;7.57;;;5.10;;
10162;SDS011;5123;52.556;13.384;2023-09-07T11:00:22;5.00;;;4.47;;
10162;SDS011;5123;52.556;13.384;2023-09-07T11:02:55;8.98;;;4.50;;
10162;SDS011;5123;52.556;13.384;2023-09-07T11:05:31;4.78;;;4.20;;
10162;SDS011;5123;52.556;13.384;2023-09-07T11:08:07;5.22;;;4.72;;
10162;SDS011;5123;52.556;13.384;2023-09-07T11:10:41;5.82;;;4.50;;
10162;SDS011;5123;52.556;13.384;2023-09-07T11:13:15;6.38;;;4.90;;
10162;SDS011;5123;52.556;13.384;2023-09-07T11:15:47;5.00;;;4.50;;
10162;SDS011;5123;52.556;13.384;2023-09-07T11:18:20;10.40;;;4.57;;
10162;SDS011;5123;52.556;13.384;2023-09-07T11:20:53;5.85;;;5.25;;
10162;SDS011;5123;52.556;13.384;2023-09-07T11:23:28;5.60;;;4.78;;
10162;SDS011;5123;52.556;13.384;2023-09-07T11:26:03;5.97;;;4.55;;
10162;SDS011;5123;52.556;13.384;2023-09-07T11:28:37;6.85;;;5.10;;
10162;SDS011;5123;52.556;13.384;2023-09-07T11:31:10;7.00;;;4.90;;
10162;SDS011;5123;52.556;13.384;2023-09-07T11:33:42;6.60;;;4.93;;
10162;SDS011;5123;52.556;13.384;2023-09-07T11:36:15;7.55;;;4.50;;
10162;SDS011;5123;52.556;13.384;2023-09-07T11:38:56;5.38;;;4.88;;
10162;SDS011;5123;52.556;13.384;2023-09-07T11:41:29;5.90;;;5.30;;
10162;SDS011;5123;52.556;13.384;2023-09-07T11:44:01;5.70;;;4.82;;
10162;SDS011;5123;52.556;13.384;2023-09-07T11:46:34;7.13;;;5.07;;
10162;SDS011;5123;52.556;13.384;2023-09-07T11:49:07;6.03;;;4.63;;
10162;SDS011;5123;52.556;13.384;2023-09-07T11:51:41;5.72;;;5.00;;
10162;SDS011;5123;52.556;13.384;2023-09-07T11:54:23;5.78;;;4.78;;
10162;SDS011;5123;52.556;13.384;2023-09-07T11:56:55;5.63;;;4.72;;
10162;SDS011;5123;52.556;13.384;2023-09-07T11:59:28;6.00;;;4.47;;
10162;SDS011;5123;52.556;13.384;2023-09-07T12:02:12;5.85;;;4.28;;
10162;SDS011;5123;52.556;13.384;2023-09-07T12:04:46;6.55;;;4.30;;
10162;SDS011;5123;52.556;13.384;2023-09-07T12:07:19;5.10;;;4.70;;
10162;SDS011;5123;52.556;13.384;2023-09-07T12:09:58;5.38;;;4.88;;
10162;SDS011;5123;52.556;13.384;2023-09-07T12:12:34;6.00;;;5.40;;
10162;SDS011;5123;52.556;13.384;2023-09-07T12:15:07;8.10;;;4.40;;
10162;SDS011;5123;52.556;13.384;2023-09-07T12:17:40;6.97;;;4.97;;
10162;SDS011;5123;52.556;13.384;2023-09-07T12:20:13;5.45;;;4.40;;
10162;SDS011;5123;52.556;13.384;2023-09-07T12:22:46;16.02;;;13.00;;
10162;SDS011;5123;52.556;13.384;2023-09-07T12:25:21;10.23;;;7.80;;
10162;SDS011;5123;52.556;13.384;2023-09-07T12:27:54;12.88;;;11.25;;
10162;SDS011;5123;52.556;13.384;2023-09-07T12:30:28;8.13;;;7.13;;
10162;SDS011;5123;52.556;13.384;2023-09-07T12:33:01;5.20;;;4.72;;
10162;SDS011;5123;52.556;13.384;2023-09-07T12:35:34;8.50;;;5.07;;
10162;SDS011;5123;52.556;13.384;2023-09-07T12:38:07;7.18;;;5.68;;
10162;SDS011;5123;52.556;13.384;2023-09-07T12:40:43;8.00;;;5.70;;
10162;SDS011;5123;52.556;13.384;2023-09-07T12:43:16;8.57;;;7.60;;
10162;SDS011;5123;52.556;13.384;2023-09-07T12:45:48;8.23;;;6.40;;
10162;SDS011;5123;52.556;13.384;2023-09-07T12:48:21;5.10;;;4.60;;
10162;SDS011;5123;52.556;13.384;2023-09-07T12:50:57;5.40;;;4.90;;
10162;SDS011;5123;52.556;13.384;2023-09-07T12:53:31;5.35;;;4.85;;
10162;SDS011;5123;52.556;13.384;2023-09-07T12:56:05;4.88;;;4.35;;
10162;SDS011;5123;52.556;13.384;2023-09-07T12:58:38;6.85;;;4.47;;
10162;SDS011;5123;52.556;13.384;2023-09-07T13:01:11;6.13;;;5.53;;
10162;SDS011;5123;52.556;13.384;2023-09-07T13:03:46;12.45;;;11.18;;
10162;SDS011;5123;52.556;13.384;2023-09-07T13:06:31;13.57;;;12.27;;
10162;SDS011;5123;52.556;13.384;2023-09-07T13:09:06;4.93;;;4.40;;
10162;SDS011;5123;52.556;13.384;2023-09-07T13:11:42;5.70;;;4.50;;
10162;SDS011;5123;52.556;13.384;2023-09-07T13:14:17;5.75;;;4.22;;
10162;SDS011;5123;52.556;13.384;2023-09-07T13:16:50;5.97;;;4.55;;
10162;SDS011;5123;52.556;13.384;2023-09-07T13:19:26;5.10;;;4.60;;
10162;SDS011;5123;52.556;13.384;2023-09-07T13:22:00;11.32;;;9.32;;
10162;SDS011;5123;52.556;13.384;2023-09-07T13:24:33;8.25;;;4.60;;
10162;SDS011;5123;52.556;13.384;2023-09-07T13:27:07;5.97;;;4.80;;
10162;SDS011;5123;52.556;13.384;2023-09-07T13:29:41;8.73;;;6.22;;
10162;SDS011;5123;52.556;13.384;2023-09-07T13:32:14;8.55;;;6.65;;
10162;SDS011;5123;52.556;13.384;2023-09-07T13:34:46;9.45;;;7.43;;
10162;SDS011;5123;52.556;13.384;2023-09-07T13:37:19;9.90;;;5.93;;
10162;SDS011;5123;52.556;13.384;2023-09-07T13:39:52;5.57;;;4.72;;
10162;SDS011;5123;52.556;13.384;2023-09-07T13:42:26;5.82;;;5.13;;
10162;SDS011;5123;52.556;13.384;2023-09-07T13:45:00;9.02;;;5.28;;
10162;SDS011;5123;52.556;13.384;2023-09-07T13:47:33;11.25;;;7.30;;
10162;SDS011;5123;52.556;13.384;2023-09-07T13:50:06;19.40;;;15.25;;
10162;SDS011;5123;52.556;13.384;2023-09-07T13:52:40;6.18;;;4.55;;
10162;SDS011;5123;52.556;13.384;2023-09-07T13:55:13;7.60;;;5.13;;
10162;SDS011;5123;52.556;13.384;2023-09-07T13:57:50;7.63;;;5.40;;
10162;SDS011;5123;52.556;13.384;2023-09-07T14:00:23;12.35;;;9.57;;
10162;SDS011;5123;52.556;13.384;2023-09-07T14:02:56;9.57;;;7.50;;
10162;SDS011;5123;52.556;13.384;2023-09-07T14:05:29;5.50;;;4.82;;
10162;SDS011;5123;52.556;13.384;2023-09-07T14:08:03;10.27;;;8.77;;
10162;SDS011;5123;52.556;13.384;2023-09-07T14:10:36;11.00;;;7.95;;
10162;SDS011;5123;52.556;13.384;2023-09-07T14:13:10;9.45;;;7.82;;
10162;SDS011;5123;52.556;13.384;2023-09-07T14:15:44;12.07;;;9.98;;
10162;SDS011;5123;52.556;13.384;2023-09-07T14:18:17;9.75;;;7.93;;
10162;SDS011;5123;52.556;13.384;2023-09-07T14:20:50;6.85;;;5.97;;
10162;SDS011;5123;52.556;13.384;2023-09-07T14:23:23;8.73;;;5.93;;
10162;SDS011;5123;52.556;13.384;2023-09-07T14:25:57;11.38;;;8.27;;
10162;SDS011;5123;52.556;13.384;2023-09-07T14:28:31;7.70;;;6.75;;
10162;SDS011;5123;52.556;13.384;2023-09-07T14:31:05;5.57;;;5.07;;
10162;SDS011;5123;52.556;13.384;2023-09-07T14:33:39;7.47;;;5.30;;
10162;SDS011;5123;52.556;13.384;2023-09-07T14:36:21;5.93;;;5.38;;
10162;SDS011;5123;52.556;13.384;2023-09-07T14:38:56;7.40;;;5.88;;
10162;SDS011;5123;52.556;13.384;2023-09-07T14:41:29;6.60;;;5.20;;
10162;SDS011;5123;52.556;13.384;2023-09-07T14:44:03;7.50;;;5.07;;
10162;SDS011;5123;52.556;13.384;2023-09-07T14:46:36;14.48;;;6.03;;
10162;SDS011;5123;52.556;13.384;2023-09-07T14:49:09;6.78;;;5.03;;
10162;SDS011;5123;52.556;13.384;2023-09-07T14:51:46;9.77;;;5.45;;
10162;SDS011;5123;52.556;13.384;2023-09-07T14:54:18;9.65;;;5.10;;
10162;SDS011;5123;52.556;13.384;2023-09-07T14:56:52;10.25;;;5.40;;
10162;SDS011;5123;52.556;13.384;2023-09-07T14:59:26;10.57;;;5.40;;
10162;SDS011;5123;52.556;13.384;2023-09-07T15:01:59;15.90;;;5.70;;
10162;SDS011;5123;52.556;13.384;2023-09-07T15:04:37;5.95;;;5.10;;
10162;SDS011;5123;52.556;13.384;2023-09-07T15:07:09;11.88;;;5.65;;
10162;SDS011;5123;52.556;13.384;2023-09-07T15:09:42;48.92;;;45.35;;
10162;SDS011;5123;52.556;13.384;2023-09-07T15:12:15;15.48;;;14.07;;
10162;SDS011;5123;52.556;13.384;2023-09-07T15:14:49;10.13;;;9.10;;
10162;SDS011;5123;52.556;13.384;2023-09-07T15:17:23;14.75;;;13.20;;
10162;SDS011;5123;52.556;13.384;2023-09-07T15:19:56;55.58;;;49.75;;
10162;SDS011;5123;52.556;13.384;2023-09-07T15:22:28;170.10;;;154.52;;